sensor_id;sensor_type;location;lat;lon;timestamp;pressure;altitude;pressure_sealevel;temperature;humidity
70488;BME280;57976;48.174;16.370;2023-02-17T06:42:44;99978.59;;;10.91;51.91
70488;BME280;57976;48.174;16.370;2023-02-17T06:44:47;99975.89;;;10.92;51.17
70488;BME280;57976;48.174;16.370;2023-02-17T06:46:49;99973.27;;;10.91;51.12
70488;BME280;57976;48.174;16.370;2023-02-17T06:48:52;99973.55;;;10.89;51.55
70488;BME280;57976;48.174;16.370;2023-02-17T06:50:55;99971.41;;;10.87;51.64
70488;BME280;57976;48.174;16.370;2023-02-17T06:52:58;99976.02;;;10.86;51.17
70488;BME280;57976;48.174;16.370;2023-02-17T06:55:01;99976.77;;;10.83;51.66
70488;BME280;57976;48.174;16.370;2023-02-17T06:57:04;99972.67;;;10.80;51.78
70488;BME280;57976;48.174;16.370;2023-02-17T06:59:06;99977.84;;;10.80;51.63
70488;BME280;57976;48.174;16.370;2023-02-17T07:01:15;99972.61;;;10.79;51.95
70488;BME280;57976;48.174;16.370;2023-02-17T07:03:18;99967.98;;;10.76;51.73
70488;BME280;57976;48.174;16.370;2023-02-17T07:05:21;99965.98;;;10.76;52.01
70488;BME280;57976;48.174;16.370;2023-02-17T07:07:23;99971.05;;;10.76;52.08
70488;BME280;57976;48.174;16.370;2023-02-17T07:09:27;99973.16;;;10.76;51.67
70488;BME280;57976;48.174;16.370;2023-02-17T07:11:30;99968.40;;;10.76;51.80
70488;BME280;57976;48.174;16.370;2023-02-17T07:13:32;99977.45;;;10.75;51.88
70488;BME280;57976;48.174;16.370;2023-02-17T07:15:35;99980.14;;;10.74;51.96
70488;BME280;57976;48.174;16.370;2023-02-17T07:17:38;99974.44;;;10.74;51.99
70488;BME280;57976;48.174;16.370;2023-02-17T07:19:41;99977.13;;;10.76;52.60
70488;BME280;57976;48.174;16.370;2023-02-17T07:21:44;99970.99;;;10.77;52.64
70488;BME280;57976;48.174;16.370;2023-02-17T07:23:47;99969.08;;;10.78;52.39
70488;BME280;57976;48.174;16.370;2023-02-17T07:25:50;99961.91;;;10.77;52.68
70488;BME280;57976;48.174;16.370;2023-02-17T07:27:52;99960.20;;;10.79;52.36
70488;BME280;57976;48.174;16.370;2023-02-17T07:29:55;99965.69;;;10.82;52.70
70488;BME280;57976;48.174;16.370;2023-02-17T07:32:01;99958.06;;;10.86;52.48
70488;BME280;57976;48.174;16.370;2023-02-17T07:34:04;99957.39;;;10.92;52.47
70488;BME280;57976;48.174;16.370;2023-02-17T07:36:08;99958.25;;;10.95;52.28
70488;BME280;57976;48.174;16.370;2023-02-17T07:38:12;99958.44;;;10.93;52.60
70488;BME280;57976;48.174;16.370;2023-02-17T07:40:15;99960.45;;;10.94;52.54
70488;BME280;57976;48.174;16.370;2023-02-17T07:42:18;99962.98;;;10.98;52.73
70488;BME280;57976;48.174;16.370;2023-02-17T07:44:22;99965.73;;;11.03;52.67
70488;BME280;57976;48.174;16.370;2023-02-17T07:46:25;99962.94;;;11.07;52.11
70488;BME280;57976;48.174;16.370;2023-02-17T07:48:28;99968.91;;;11.12;52.29
70488;BME280;57976;48.174;16.370;2023-02-17T07:50:30;99970.76;;;11.16;52.16
70488;BME280;57976;48.174;16.370;2023-02-17T07:52:33;99980.53;;;11.18;51.61
70488;BME280;57976;48.174;16.370;2023-02-17T07:54:36;99980.65;;;11.14;52.00
70488;BME280;57976;48.174;16.370;2023-02-17T07:56:39;99979.88;;;11.09;52.06
70488;BME280;57976;48.174;16.370;2023-02-17T07:58:43;99979.53;;;11.05;51.93
70488;BME280;57976;48.174;16.370;2023-02-17T08:00:46;99983.52;;;11.00;51.75
70488;BME280;57976;48.174;16.370;2023-02-17T08:02:49;99980.96;;;10.91;51.94
70488;BME280;57976;48.174;16.370;2023-02-17T08:04:52;99973.84;;;10.78;51.52
70488;BME280;57976;48.174;16.370;2023-02-17T08:06:55;99975.31;;;10.68;52.00
70488;BME280;57976;48.174;16.370;2023-02-17T08:08:58;99965.48;;;10.64;52.61
70488;BME280;57976;48.174;16.370;2023-02-17T08:11:01;99965.04;;;10.57;52.51
70488;BME280;57976;48.174;16.370;2023-02-17T08:13:04;99962.77;;;10.50;52.25
70488;BME280;57976;48.174;16.370;2023-02-17T08:15:09;99963.72;;;10.45;52.20
70488;BME280;57976;48.174;16.370;2023-02-17T08:17:12;99974.40;;;10.34;52.45
70488;BME280;57976;48.174;16.370;2023-02-17T08:19:15;99972.54;;;10.25;52.38
70488;BME280;57976;48.174;16.370;2023-02-17T08:21:27;99972.05;;;10.23;52.56
70488;BME280;57976;48.174;16.370;2023-02-17T08:23:32;99980.36;;;10.27;53.21
70488;BME280;57976;48.174;16.370;2023-02-17T08:25:35;99975.98;;;10.34;53.17
70488;BME280;57976;48.174;16.370;2023-02-17T08:27:41;99968.23;;;10.38;52.70
70488;BME280;57976;48.174;16.370;2023-02-17T08:29:48;99968.09;;;10.47;52.89
70488;BME280;57976;48.174;16.370;2023-02-17T08:31:54;99965.86;;;10.58;53.28
70488;BME280;57976;48.174;16.370;2023-02-17T08:33:58;99974.34;;;10.73;53.54
70488;BME280;57976;48.174;16.370;2023-02-17T08:36:07;99967.86;;;10.85;53.55
70488;BME280;57976;48.174;16.370;2023-02-17T08:38:10;99969.14;;;11.00;54.13
70488;BME280;57976;48.174;16.370;2023-02-17T08:40:13;99966.63;;;11.18;54.58
70488;BME280;57976;48.174;16.370;2023-02-17T08:42:16;99965.59;;;11.33;54.60
70488;BME280;57976;48.174;16.370;2023-02-17T08:44:19;99965.09;;;11.48;54.51
70488;BME280;57976;48.174;16.370;2023-02-17T08:46:22;99960.48;;;11.62;54.57
70488;BME280;57976;48.174;16.370;2023-02-17T08:48:25;99959.06;;;11.77;54.95
70488;BME280;57976;48.174;16.370;2023-02-17T08:50:28;99959.02;;;11.92;55.14
70488;BME280;57976;48.174;16.370;2023-02-17T08:52:32;99956.83;;;12.06;55.47
70488;BME280;57976;48.174;16.370;2023-02-17T08:54:35;99959.20;;;12.22;55.38
70488;BME280;57976;48.174;16.370;2023-02-17T08:56:39;99956.28;;;12.38;55.61
70488;BME280;57976;48.174;16.370;2023-02-17T08:58:43;99955.23;;;12.50;55.28
70488;BME280;57976;48.174;16.370;2023-02-17T09:00:46;99956.89;;;12.59;54.75
70488;BME280;57976;48.174;16.370;2023-02-17T09:02:48;99953.48;;;12.69;54.98
70488;BME280;57976;48.174;16.370;2023-02-17T09:04:51;99951.79;;;12.75;54.56
70488;BME280;57976;48.174;16.370;2023-02-17T09:06:55;99957.40;;;12.81;54.66
70488;BME280;57976;48.174;16.370;2023-02-17T09:08:58;99957.25;;;12.84;55.05
70488;BME280;57976;48.174;16.370;2023-02-17T09:11:00;99961.61;;;12.87;54.98
70488;BME280;57976;48.174;16.370;2023-02-17T09:13:03;99959.89;;;12.88;54.57
70488;BME280;57976;48.174;16.370;2023-02-17T09:15:08;99955.83;;;12.88;54.76
70488;BME280;57976;48.174;16.370;2023-02-17T09:17:11;99951.17;;;12.88;55.46
70488;BME280;57976;48.174;16.370;2023-02-17T09:19:14;99958.34;;;12.89;55.59
70488;BME280;57976;48.174;16.370;2023-02-17T09:21:17;99951.38;;;12.89;55.78
70488;BME280;57976;48.174;16.370;2023-02-17T09:23:20;99953.73;;;12.89;56.56
70488;BME280;57976;48.174;16.370;2023-02-17T09:25:23;99953.33;;;12.89;57.34
70488;BME280;57976;48.174;16.370;2023-02-17T09:27:25;99943.44;;;12.87;58.13
70488;BME280;57976;48.174;16.370;2023-02-17T09:29:28;99936.27;;;12.86;58.95
70488;BME280;57976;48.174;16.370;2023-02-17T09:31:32;99931.98;;;12.83;59.73
70488;BME280;57976;48.174;16.370;2023-02-17T09:33:35;99935.38;;;12.83;59.85
70488;BME280;57976;48.174;16.370;2023-02-17T09:35:39;99931.21;;;12.82;60.29
70488;BME280;57976;48.174;16.370;2023-02-17T09:37:42;99936.27;;;12.83;61.23
70488;BME280;57976;48.174;16.370;2023-02-17T09:39:45;99934.63;;;12.86;61.52
70488;BME280;57976;48.174;16.370;2023-02-17T09:41:50;99930.73;;;12.90;61.95
70488;BME280;57976;48.174;16.370;2023-02-17T09:43:54;99926.27;;;12.94;62.14
70488;BME280;57976;48.174;16.370;2023-02-17T09:46:04;99922.33;;;12.95;62.59
70488;BME280;57976;48.174;16.370;2023-02-17T09:48:10;99922.54;;;12.97;63.44
70488;BME280;57976;48.174;16.370;2023-02-17T09:50:17;99925.86;;;12.96;64.32
70488;BME280;57976;48.174;16.370;2023-02-17T09:52:25;99928.31;;;12.92;64.22
70488;BME280;57976;48.174;16.370;2023-02-17T09:54:33;99928.08;;;12.84;64.97
70488;BME280;57976;48.174;16.370;2023-02-17T09:56:40;99919.05;;;12.76;65.46
70488;BME280;57976;48.174;16.370;2023-02-17T09:58:46;99920.24;;;12.67;65.76
70488;BME280;57976;48.174;16.370;2023-02-17T10:00:55;99923.42;;;12.62;66.51
70488;BME280;57976;48.174;16.370;2023-02-17T10:02:59;99919.46;;;12.55;67.28
70488;BME280;57976;48.174;16.370;2023-02-17T10:05:09;99927.54;;;12.49;67.39
70488;BME280;57976;48.174;16.370;2023-02-17T10:07:19;99922.27;;;12.43;66.68
70488;BME280;57976;48.174;16.370;2023-02-17T10:09:27;99918.27;;;12.40;66.89
70488;BME280;57976;48.174;16.370;2023-02-17T10:11:34;99911.67;;;12.37;66.71
70488;BME280;57976;48.174;16.370;2023-02-17T10:13:40;99908.67;;;12.35;66.95
70488;BME280;57976;48.174;16.370;2023-02-17T10:15:49;99907.31;;;12.35;66.98
70488;BME280;57976;48.174;16.370;2023-02-17T10:17:58;99914.67;;;12.34;67.01
70488;BME280;57976;48.174;16.370;2023-02-17T10:20:07;99916.02;;;12.34;67.26
70488;BME280;57976;48.174;16.370;2023-02-17T10:22:15;99913.73;;;12.32;66.81
70488;BME280;57976;48.174;16.370;2023-02-17T10:24:21;99919.05;;;12.31;66.93
70488;BME280;57976;48.174;16.370;2023-02-17T10:26:49;99912.43;;;12.31;66.93
70488;BME280;57976;48.174;16.370;2023-02-17T10:29:00;99918.71;;;12.30;67.12
70488;BME280;57976;48.174;16.370;2023-02-17T10:31:14;99902.07;;;12.29;67.02
70488;BME280;57976;48.174;16.370;2023-02-17T10:33:27;99903.77;;;12.27;67.16
70488;BME280;57976;48.174;16.370;2023-02-17T10:35:50;99900.55;;;12.31;66.92
70488;BME280;57976;48.174;16.370;2023-02-17T10:38:00;99895.05;;;12.32;66.30
70488;BME280;57976;48.174;16.370;2023-02-17T10:40:11;99899.36;;;12.32;65.87
70488;BME280;57976;48.174;16.370;2023-02-17T10:42:21;99891.43;;;12.32;65.12
70488;BME280;57976;48.174;16.370;2023-02-17T10:44:28;99890.20;;;12.34;64.67
70488;BME280;57976;48.174;16.370;2023-02-17T10:46:35;99890.92;;;12.35;64.26
70488;BME280;57976;48.174;16.370;2023-02-17T10:48:45;99887.80;;;12.37;63.96
70488;BME280;57976;48.174;16.370;2023-02-17T10:50:52;99884.94;;;12.38;62.23
70488;BME280;57976;48.174;16.370;2023-02-17T10:52:58;99885.68;;;12.41;62.90
70488;BME280;57976;48.174;16.370;2023-02-17T10:55:08;99885.14;;;12.43;62.31
70488;BME280;57976;48.174;16.370;2023-02-17T10:57:31;99884.59;;;12.46;61.43
70488;BME280;57976;48.174;16.370;2023-02-17T10:59:40;99873.80;;;12.50;61.61
70488;BME280;57976;48.174;16.370;2023-02-17T11:01:46;99876.73;;;12.53;61.56
70488;BME280;57976;48.174;16.370;2023-02-17T11:04:02;99866.39;;;12.57;60.85
70488;BME280;57976;48.174;16.370;2023-02-17T11:06:17;99878.68;;;12.63;60.55
70488;BME280;57976;48.174;16.370;2023-02-17T11:08:30;99855.27;;;12.68;60.32
70488;BME280;57976;48.174;16.370;2023-02-17T11:10:39;99845.16;;;12.72;60.36
70488;BME280;57976;48.174;16.370;2023-02-17T11:12:45;99840.23;;;12.75;60.18
70488;BME280;57976;48.174;16.370;2023-02-17T11:14:52;99840.20;;;12.78;59.98
70488;BME280;57976;48.174;16.370;2023-02-17T11:17:00;99836.13;;;12.82;59.83
70488;BME280;57976;48.174;16.370;2023-02-17T11:19:06;99826.69;;;12.86;59.61
70488;BME280;57976;48.174;16.370;2023-02-17T11:21:23;99824.85;;;12.90;59.70
70488;BME280;57976;48.174;16.370;2023-02-17T11:23:27;99816.20;;;12.93;59.40
70488;BME280;57976;48.174;16.370;2023-02-17T11:25:33;99813.94;;;12.97;59.21
70488;BME280;57976;48.174;16.370;2023-02-17T11:27:39;99811.32;;;13.00;59.34
70488;BME280;57976;48.174;16.370;2023-02-17T11:29:44;99814.11;;;13.06;59.30
70488;BME280;57976;48.174;16.370;2023-02-17T11:31:56;99808.39;;;13.10;58.49
70488;BME280;57976;48.174;16.370;2023-02-17T11:34:11;99803.83;;;13.15;57.97
70488;BME280;57976;48.174;16.370;2023-02-17T11:36:25;99793.12;;;13.18;57.76
70488;BME280;57976;48.174;16.370;2023-02-17T11:38:41;99795.73;;;13.19;57.32
70488;BME280;57976;48.174;16.370;2023-02-17T11:40:57;99788.44;;;13.22;57.23
70488;BME280;57976;48.174;16.370;2023-02-17T11:43:04;99801.67;;;13.23;57.25
70488;BME280;57976;48.174;16.370;2023-02-17T11:45:17;99792.70;;;13.26;57.08
70488;BME280;57976;48.174;16.370;2023-02-17T11:47:32;99783.29;;;13.27;57.11
70488;BME280;57976;48.174;16.370;2023-02-17T11:50:11;99791.35;;;13.28;57.09
70488;BME280;57976;48.174;16.370;2023-02-17T11:52:37;99798.77;;;13.33;57.15
70488;BME280;57976;48.174;16.370;2023-02-17T11:54:55;99786.74;;;13.36;57.47
70488;BME280;57976;48.174;16.370;2023-02-17T11:57:20;99782.29;;;13.37;57.74
70488;BME280;57976;48.174;16.370;2023-02-17T11:59:46;99785.67;;;13.41;57.98
70488;BME280;57976;48.174;16.370;2023-02-17T12:02:08;99763.84;;;13.42;58.10
70488;BME280;57976;48.174;16.370;2023-02-17T12:04:25;99767.34;;;13.42;58.11
70488;BME280;57976;48.174;16.370;2023-02-17T12:06:39;99757.77;;;13.42;58.44
70488;BME280;57976;48.174;16.370;2023-02-17T12:08:58;99760.04;;;13.43;58.85
70488;BME280;57976;48.174;16.370;2023-02-17T12:11:11;99763.10;;;13.44;59.09
70488;BME280;57976;48.174;16.370;2023-02-17T12:13:34;99768.23;;;13.43;59.11
70488;BME280;57976;48.174;16.370;2023-02-17T12:15:57;99767.91;;;13.43;59.36
70488;BME280;57976;48.174;16.370;2023-02-17T12:18:13;99761.83;;;13.43;59.60
70488;BME280;57976;48.174;16.370;2023-02-17T12:20:37;99761.45;;;13.43;59.98
70488;BME280;57976;48.174;16.370;2023-02-17T12:22:52;99748.52;;;13.41;60.07
70488;BME280;57976;48.174;16.370;2023-02-17T12:25:21;99758.98;;;13.40;60.27
70488;BME280;57976;48.174;16.370;2023-02-17T12:27:37;99770.02;;;13.41;60.04
70488;BME280;57976;48.174;16.370;2023-02-17T12:30:00;99759.56;;;13.40;60.37
70488;BME280;57976;48.174;16.370;2023-02-17T12:32:22;99750.39;;;13.39;60.22
70488;BME280;57976;48.174;16.370;2023-02-17T12:34:35;99756.59;;;13.38;60.53
70488;BME280;57976;48.174;16.370;2023-02-17T12:36:43;99756.39;;;13.37;60.78
70488;BME280;57976;48.174;16.370;2023-02-17T12:38:54;99759.19;;;13.38;60.82
70488;BME280;57976;48.174;16.370;2023-02-17T12:41:04;99757.67;;;13.36;60.99
70488;BME280;57976;48.174;16.370;2023-02-17T12:43:23;99755.16;;;13.36;61.05
70488;BME280;57976;48.174;16.370;2023-02-17T12:45:36;99750.05;;;13.35;61.39
70488;BME280;57976;48.174;16.370;2023-02-17T12:47:50;99762.54;;;13.35;61.42
70488;BME280;57976;48.174;16.370;2023-02-17T12:50:02;99750.59;;;13.34;61.58
70488;BME280;57976;48.174;16.370;2023-02-17T12:52:12;99743.19;;;13.33;61.71
70488;BME280;57976;48.174;16.370;2023-02-17T12:54:22;99744.42;;;13.33;61.90
70488;BME280;57976;48.174;16.370;2023-02-17T12:56:42;99732.85;;;13.30;61.89
70488;BME280;57976;48.174;16.370;2023-02-17T12:58:51;99739.61;;;13.29;62.09
70488;BME280;57976;48.174;16.370;2023-02-17T13:01:04;99734.38;;;13.28;62.00
70488;BME280;57976;48.174;16.370;2023-02-17T13:03:11;99724.26;;;13.28;61.90
70488;BME280;57976;48.174;16.370;2023-02-17T13:05:21;99722.08;;;13.27;62.16
70488;BME280;57976;48.174;16.370;2023-02-17T13:07:43;99713.17;;;13.29;62.07
70488;BME280;57976;48.174;16.370;2023-02-17T13:09:50;99723.22;;;13.31;62.22
70488;BME280;57976;48.174;16.370;2023-02-17T13:12:08;99702.39;;;13.32;62.30
70488;BME280;57976;48.174;16.370;2023-02-17T13:14:22;99708.27;;;13.33;62.52
70488;BME280;57976;48.174;16.370;2023-02-17T13:16:28;99704.44;;;13.32;62.70
70488;BME280;57976;48.174;16.370;2023-02-17T13:18:35;99710.73;;;13.33;62.91
70488;BME280;57976;48.174;16.370;2023-02-17T13:20:52;99705.40;;;13.32;62.99
70488;BME280;57976;48.174;16.370;2023-02-17T13:23:10;99705.57;;;13.29;63.47
70488;BME280;57976;48.174;16.370;2023-02-17T13:25:29;99700.30;;;13.28;63.62
70488;BME280;57976;48.174;16.370;2023-02-17T13:27:36;99703.95;;;13.29;63.81
70488;BME280;57976;48.174;16.370;2023-02-17T13:29:41;99698.20;;;13.31;64.06
70488;BME280;57976;48.174;16.370;2023-02-17T13:31:49;99693.52;;;13.34;63.95
70488;BME280;57976;48.174;16.370;2023-02-17T13:33:57;99683.27;;;13.36;64.16
70488;BME280;57976;48.174;16.370;2023-02-17T13:36:13;99685.95;;;13.38;63.98
70488;BME280;57976;48.174;16.370;2023-02-17T13:38:28;99682.41;;;13.41;63.93
70488;BME280;57976;48.174;16.370;2023-02-17T13:40:39;99676.06;;;13.41;63.99
70488;BME280;57976;48.174;16.370;2023-02-17T13:42:45;99691.58;;;13.43;63.90
70488;BME280;57976;48.174;16.370;2023-02-17T13:44:51;99681.45;;;13.44;63.83
70488;BME280;57976;48.174;16.370;2023-02-17T13:46:59;99675.92;;;13.45;63.71
70488;BME280;57976;48.174;16.370;2023-02-17T13:49:24;99677.36;;;13.46;63.70
70488;BME280;57976;48.174;16.370;2023-02-17T13:51:31;99669.50;;;13.47;63.50
70488;BME280;57976;48.174;16.370;2023-02-17T13:53:38;99679.58;;;13.48;63.55
70488;BME280;57976;48.174;16.370;2023-02-17T13:55:44;99686.70;;;13.49;63.73
70488;BME280;57976;48.174;16.370;2023-02-17T13:57:52;99677.71;;;13.53;63.75
70488;BME280;57976;48.174;16.370;2023-02-17T14:00:24;99684.87;;;13.52;63.77
70488;BME280;57976;48.174;16.370;2023-02-17T14:02:31;99675.36;;;13.54;63.88
70488;BME280;57976;48.174;16.370;2023-02-17T14:04:40;99670.78;;;13.56;63.88
70488;BME280;57976;48.174;16.370;2023-02-17T14:06:47;99675.09;;;13.60;64.02
70488;BME280;57976;48.174;16.370;2023-02-17T14:08:52;99675.25;;;13.61;64.00
70488;BME280;57976;48.174;16.370;2023-02-17T14:11:05;99668.95;;;13.61;63.97
70488;BME280;57976;48.174;16.370;2023-02-17T14:13:11;99666.68;;;13.62;64.06
70488;BME280;57976;48.174;16.370;2023-02-17T14:15:18;99666.02;;;13.63;64.08
70488;BME280;57976;48.174;16.370;2023-02-17T14:17:31;99662.83;;;13.66;64.30
70488;BME280;57976;48.174;16.370;2023-02-17T14:19:52;99646.56;;;13.67;64.15
70488;BME280;57976;48.174;16.370;2023-02-17T14:22:02;99654.74;;;13.70;63.76
70488;BME280;57976;48.174;16.370;2023-02-17T14:24:24;99645.13;;;13.72;63.27
70488;BME280;57976;48.174;16.370;2023-02-17T14:26:34;99638.15;;;13.76;63.43
70488;BME280;57976;48.174;16.370;2023-02-17T14:28:40;99641.23;;;13.78;63.14
70488;BME280;57976;48.174;16.370;2023-02-17T14:30:55;99639.33;;;13.82;62.68
70488;BME280;57976;48.174;16.370;2023-02-17T14:33:17;99637.13;;;13.84;62.56
70488;BME280;57976;48.174;16.370;2023-02-17T14:35:24;99628.73;;;13.88;62.32
70488;BME280;57976;48.174;16.370;2023-02-17T14:37:29;99617.88;;;13.92;62.26
70488;BME280;57976;48.174;16.370;2023-02-17T14:39:34;99614.40;;;13.95;61.84
70488;BME280;57976;48.174;16.370;2023-02-17T14:41:40;99612.70;;;13.98;61.64
70488;BME280;57976;48.174;16.370;2023-02-17T14:43:45;99624.30;;;14.02;61.76
70488;BME280;57976;48.174;16.370;2023-02-17T14:45:51;99631.38;;;14.03;61.23
70488;BME280;57976;48.174;16.370;2023-02-17T14:47:59;99618.36;;;14.07;61.03
70488;BME280;57976;48.174;16.370;2023-02-17T14:50:05;99626.69;;;14.13;60.80
70488;BME280;57976;48.174;16.370;2023-02-17T14:52:18;99630.09;;;14.17;61.03
70488;BME280;57976;48.174;16.370;2023-02-17T14:54:25;99630.32;;;14.20;60.88
70488;BME280;57976;48.174;16.370;2023-02-17T14:56:37;99636.83;;;14.24;60.44
70488;BME280;57976;48.174;16.370;2023-02-17T14:58:45;99628.95;;;14.26;60.19
70488;BME280;57976;48.174;16.370;2023-02-17T15:00:51;99631.13;;;14.29;59.93
70488;BME280;57976;48.174;16.370;2023-02-17T15:02:57;99623.77;;;14.31;60.25
70488;BME280;57976;48.174;16.370;2023-02-17T15:05:04;99625.39;;;14.33;59.67
70488;BME280;57976;48.174;16.370;2023-02-17T15:07:13;99619.71;;;14.37;59.27
70488;BME280;57976;48.174;16.370;2023-02-17T15:09:25;99609.60;;;14.39;59.19
70488;BME280;57976;48.174;16.370;2023-02-17T15:11:35;99610.52;;;14.41;59.27
70488;BME280;57976;48.174;16.370;2023-02-17T15:13:41;99615.73;;;14.43;58.69
70488;BME280;57976;48.174;16.370;2023-02-17T15:15:47;99619.13;;;14.48;58.28
70488;BME280;57976;48.174;16.370;2023-02-17T15:17:52;99603.89;;;14.51;58.22
70488;BME280;57976;48.174;16.370;2023-02-17T15:19:57;99619.92;;;14.53;58.08
70488;BME280;57976;48.174;16.370;2023-02-17T15:22:03;99615.35;;;14.54;58.05
70488;BME280;57976;48.174;16.370;2023-02-17T15:24:15;99605.81;;;14.56;57.81
70488;BME280;57976;48.174;16.370;2023-02-17T15:26:22;99624.60;;;14.60;57.83
